sensor_id;sensor_type;location;lat;lon;timestamp;P1;durP1;ratioP1;P2;durP2;ratioP2
15889;SDS011;8043;49.388;12.128;2024-03-25T00:04:49;2.72;;;2.33;;
15889;SDS011;8043;49.388;12.128;2024-03-25T00:09:51;1.92;;;1.42;;
15889;SDS011;8043;49.388;12.128;2024-03-25T00:14:55;1.60;;;1.32;;
15889;SDS011;8043;49.388;12.128;2024-03-25T00:25:00;2.62;;;1.75;;
15889;SDS011;8043;49.388;12.128;2024-03-25T00:30:03;3.12;;;1.85;;
15889;SDS011;8043;49.388;12.128;2024-03-25T00:35:06;3.70;;;1.62;;
15889;SDS011;8043;49.388;12.128;2024-03-25T00:40:09;3.02;;;2.33;;
15889;SDS011;8043;49.388;12.128;2024-03-25T00:45:12;2.25;;;1.82;;
15889;SDS011;8043;49.388;12.128;2024-03-25T00:50:14;6.40;;;2.83;;
15889;SDS011;8043;49.388;12.128;2024-03-25T00:55:17;2.17;;;1.60;;
15889;SDS011;8043;49.388;12.128;2024-03-25T01:00:21;1.67;;;1.47;;
15889;SDS011;8043;49.388;12.128;2024-03-25T01:05:23;0.72;;;0.72;;
15889;SDS011;8043;49.388;12.128;2024-03-25T01:10:26;2.37;;;1.60;;
15889;SDS011;8043;49.388;12.128;2024-03-25T01:15:29;6.95;;;3.12;;
15889;SDS011;8043;49.388;12.128;2024-03-25T01:20:31;3.12;;;1.70;;
15889;SDS011;8043;49.388;12.128;2024-03-25T01:25:34;1.47;;;1.37;;
15889;SDS011;8043;49.388;12.128;2024-03-25T01:30:36;9.40;;;2.25;;
15889;SDS011;8043;49.388;12.128;2024-03-25T01:35:39;3.87;;;1.52;;
15889;SDS011;8043;49.388;12.128;2024-03-25T01:40:42;7.25;;;2.70;;
15889;SDS011;8043;49.388;12.128;2024-03-25T01:45:45;5.12;;;1.92;;
15889;SDS011;8043;49.388;12.128;2024-03-25T01:50:50;11.08;;;2.85;;
15889;SDS011;8043;49.388;12.128;2024-03-25T01:55:54;3.15;;;1.87;;
15889;SDS011;8043;49.388;12.128;2024-03-25T02:00:59;5.53;;;1.77;;
15889;SDS011;8043;49.388;12.128;2024-03-25T02:06:03;0.95;;;0.80;;
15889;SDS011;8043;49.388;12.128;2024-03-25T02:11:09;6.87;;;2.52;;
15889;SDS011;8043;49.388;12.128;2024-03-25T02:16:13;2.83;;;1.32;;
15889;SDS011;8043;49.388;12.128;2024-03-25T02:21:15;9.45;;;2.95;;
15889;SDS011;8043;49.388;12.128;2024-03-25T02:26:18;4.00;;;1.72;;
15889;SDS011;8043;49.388;12.128;2024-03-25T02:31:20;3.42;;;2.40;;
15889;SDS011;8043;49.388;12.128;2024-03-25T02:36:24;2.80;;;1.57;;
15889;SDS011;8043;49.388;12.128;2024-03-25T02:41:26;2.62;;;1.85;;
15889;SDS011;8043;49.388;12.128;2024-03-25T02:46:31;1.63;;;1.50;;
15889;SDS011;8043;49.388;12.128;2024-03-25T02:51:34;5.47;;;1.40;;
15889;SDS011;8043;49.388;12.128;2024-03-25T02:56:37;3.30;;;1.75;;
15889;SDS011;8043;49.388;12.128;2024-03-25T03:01:41;10.08;;;2.05;;
15889;SDS011;8043;49.388;12.128;2024-03-25T03:06:43;1.45;;;1.35;;
15889;SDS011;8043;49.388;12.128;2024-03-25T03:11:46;4.95;;;2.45;;
15889;SDS011;8043;49.388;12.128;2024-03-25T03:16:49;1.40;;;1.30;;
15889;SDS011;8043;49.388;12.128;2024-03-25T03:21:53;1.55;;;1.32;;
15889;SDS011;8043;49.388;12.128;2024-03-25T03:26:56;2.27;;;1.62;;
15889;SDS011;8043;49.388;12.128;2024-03-25T03:37:01;1.65;;;1.55;;
15889;SDS011;8043;49.388;12.128;2024-03-25T03:42:03;2.65;;;1.70;;
15889;SDS011;8043;49.388;12.128;2024-03-25T03:52:07;3.90;;;1.45;;
15889;SDS011;8043;49.388;12.128;2024-03-25T03:57:10;4.87;;;2.02;;
15889;SDS011;8043;49.388;12.128;2024-03-25T04:02:12;6.83;;;2.12;;
15889;SDS011;8043;49.388;12.128;2024-03-25T04:07:15;4.28;;;2.42;;
15889;SDS011;8043;49.388;12.128;2024-03-25T04:12:18;2.27;;;1.40;;
15889;SDS011;8043;49.388;12.128;2024-03-25T04:17:21;8.43;;;2.45;;
15889;SDS011;8043;49.388;12.128;2024-03-25T04:22:23;2.47;;;1.75;;
15889;SDS011;8043;49.388;12.128;2024-03-25T04:27:26;3.00;;;1.93;;
15889;SDS011;8043;49.388;12.128;2024-03-25T04:32:28;10.70;;;2.30;;
15889;SDS011;8043;49.388;12.128;2024-03-25T04:37:30;7.25;;;2.98;;
15889;SDS011;8043;49.388;12.128;2024-03-25T04:42:33;4.25;;;2.35;;
15889;SDS011;8043;49.388;12.128;2024-03-25T04:47:36;1.55;;;1.45;;
15889;SDS011;8043;49.388;12.128;2024-03-25T04:52:39;2.83;;;2.20;;
15889;SDS011;8043;49.388;12.128;2024-03-25T04:57:41;3.92;;;2.27;;
15889;SDS011;8043;49.388;12.128;2024-03-25T05:02:44;1.98;;;1.77;;
15889;SDS011;8043;49.388;12.128;2024-03-25T05:07:47;2.15;;;1.45;;
15889;SDS011;8043;49.388;12.128;2024-03-25T05:12:49;2.50;;;1.62;;
15889;SDS011;8043;49.388;12.128;2024-03-25T05:17:51;3.33;;;2.70;;
15889;SDS011;8043;49.388;12.128;2024-03-25T05:22:54;3.58;;;2.15;;
15889;SDS011;8043;49.388;12.128;2024-03-25T05:27:56;5.70;;;2.72;;
15889;SDS011;8043;49.388;12.128;2024-03-25T05:32:59;11.28;;;2.50;;
15889;SDS011;8043;49.388;12.128;2024-03-25T05:38:02;4.95;;;2.10;;
15889;SDS011;8043;49.388;12.128;2024-03-25T05:43:04;4.20;;;2.02;;
15889;SDS011;8043;49.388;12.128;2024-03-25T05:48:07;3.75;;;1.92;;
15889;SDS011;8043;49.388;12.128;2024-03-25T05:53:09;4.65;;;2.35;;
15889;SDS011;8043;49.388;12.128;2024-03-25T05:58:11;4.83;;;2.67;;
15889;SDS011;8043;49.388;12.128;2024-03-25T06:03:14;4.00;;;2.90;;
15889;SDS011;8043;49.388;12.128;2024-03-25T06:08:19;2.72;;;2.15;;
15889;SDS011;8043;49.388;12.128;2024-03-25T06:13:23;0.33;;;0.33;;
15889;SDS011;8043;49.388;12.128;2024-03-25T06:18:25;4.45;;;2.27;;
15889;SDS011;8043;49.388;12.128;2024-03-25T06:23:29;3.00;;;2.08;;
15889;SDS011;8043;49.388;12.128;2024-03-25T06:28:33;5.67;;;1.70;;
15889;SDS011;8043;49.388;12.128;2024-03-25T06:33:35;2.85;;;2.02;;
15889;SDS011;8043;49.388;12.128;2024-03-25T06:38:56;3.98;;;2.17;;
15889;SDS011;8043;49.388;12.128;2024-03-25T06:43:59;3.70;;;2.10;;
15889;SDS011;8043;49.388;12.128;2024-03-25T06:49:02;4.42;;;1.98;;
15889;SDS011;8043;49.388;12.128;2024-03-25T06:54:05;9.95;;;1.80;;
15889;SDS011;8043;49.388;12.128;2024-03-25T06:59:08;2.37;;;2.17;;
15889;SDS011;8043;49.388;12.128;2024-03-25T07:04:10;2.90;;;2.08;;
15889;SDS011;8043;49.388;12.128;2024-03-25T07:09:12;8.65;;;2.12;;
15889;SDS011;8043;49.388;12.128;2024-03-25T07:14:15;3.65;;;2.30;;
15889;SDS011;8043;49.388;12.128;2024-03-25T07:19:18;1.98;;;1.75;;
15889;SDS011;8043;49.388;12.128;2024-03-25T07:24:20;7.22;;;2.33;;
15889;SDS011;8043;49.388;12.128;2024-03-25T07:29:23;3.08;;;1.55;;
15889;SDS011;8043;49.388;12.128;2024-03-25T07:34:28;2.75;;;1.90;;
15889;SDS011;8043;49.388;12.128;2024-03-25T07:39:30;0.98;;;0.93;;
15889;SDS011;8043;49.388;12.128;2024-03-25T07:44:33;10.63;;;1.85;;
15889;SDS011;8043;49.388;12.128;2024-03-25T07:49:35;2.58;;;1.17;;
15889;SDS011;8043;49.388;12.128;2024-03-25T07:54:38;12.95;;;2.55;;
15889;SDS011;8043;49.388;12.128;2024-03-25T07:59:40;3.50;;;1.95;;
15889;SDS011;8043;49.388;12.128;2024-03-25T08:04:42;5.25;;;2.83;;
15889;SDS011;8043;49.388;12.128;2024-03-25T08:09:45;13.72;;;1.90;;
15889;SDS011;8043;49.388;12.128;2024-03-25T08:14:47;3.67;;;1.77;;
15889;SDS011;8043;49.388;12.128;2024-03-25T08:19:50;2.85;;;1.57;;
15889;SDS011;8043;49.388;12.128;2024-03-25T08:24:52;3.70;;;1.97;;
15889;SDS011;8043;49.388;12.128;2024-03-25T08:29:55;3.33;;;2.08;;
15889;SDS011;8043;49.388;12.128;2024-03-25T08:34:58;7.78;;;1.90;;
15889;SDS011;8043;49.388;12.128;2024-03-25T08:40:02;1.92;;;1.50;;
15889;SDS011;8043;49.388;12.128;2024-03-25T08:45:06;3.12;;;1.90;;
15889;SDS011;8043;49.388;12.128;2024-03-25T08:50:09;4.17;;;1.90;;
15889;SDS011;8043;49.388;12.128;2024-03-25T08:55:11;7.72;;;1.37;;
15889;SDS011;8043;49.388;12.128;2024-03-25T09:00:14;1.25;;;1.15;;
15889;SDS011;8043;49.388;12.128;2024-03-25T09:05:18;1.30;;;1.20;;
15889;SDS011;8043;49.388;12.128;2024-03-25T09:10:21;1.52;;;1.42;;
15889;SDS011;8043;49.388;12.128;2024-03-25T09:15:41;5.00;;;1.82;;
15889;SDS011;8043;49.388;12.128;2024-03-25T09:25:52;2.05;;;1.77;;
15889;SDS011;8043;49.388;12.128;2024-03-25T09:30:55;2.92;;;2.62;;
15889;SDS011;8043;49.388;12.128;2024-03-25T09:35:59;5.78;;;1.85;;
15889;SDS011;8043;49.388;12.128;2024-03-25T09:41:01;6.72;;;1.75;;
15889;SDS011;8043;49.388;12.128;2024-03-25T09:46:04;0.93;;;0.93;;
15889;SDS011;8043;49.388;12.128;2024-03-25T09:51:07;5.37;;;1.92;;
15889;SDS011;8043;49.388;12.128;2024-03-25T09:56:11;2.35;;;1.47;;
15889;SDS011;8043;49.388;12.128;2024-03-25T10:01:15;2.67;;;1.92;;
15889;SDS011;8043;49.388;12.128;2024-03-25T10:06:18;5.50;;;1.95;;
15889;SDS011;8043;49.388;12.128;2024-03-25T10:11:21;2.40;;;1.17;;
15889;SDS011;8043;49.388;12.128;2024-03-25T10:16:23;7.23;;;1.43;;
15889;SDS011;8043;49.388;12.128;2024-03-25T10:26:28;11.70;;;1.47;;
15889;SDS011;8043;49.388;12.128;2024-03-25T10:31:32;5.28;;;1.55;;
15889;SDS011;8043;49.388;12.128;2024-03-25T10:36:34;1.50;;;0.90;;
15889;SDS011;8043;49.388;12.128;2024-03-25T10:41:37;1.90;;;1.40;;
15889;SDS011;8043;49.388;12.128;2024-03-25T10:46:40;3.30;;;1.77;;
15889;SDS011;8043;49.388;12.128;2024-03-25T10:51:43;0.78;;;0.78;;
15889;SDS011;8043;49.388;12.128;2024-03-25T10:56:46;2.95;;;1.35;;
15889;SDS011;8043;49.388;12.128;2024-03-25T11:01:50;5.43;;;1.03;;
15889;SDS011;8043;49.388;12.128;2024-03-25T11:06:53;5.62;;;1.98;;
15889;SDS011;8043;49.388;12.128;2024-03-25T11:11:58;3.17;;;1.92;;
15889;SDS011;8043;49.388;12.128;2024-03-25T11:17:02;2.72;;;1.60;;
15889;SDS011;8043;49.388;12.128;2024-03-25T11:22:07;3.58;;;1.27;;
15889;SDS011;8043;49.388;12.128;2024-03-25T11:27:10;12.15;;;2.22;;
15889;SDS011;8043;49.388;12.128;2024-03-25T11:32:12;1.07;;;0.65;;
15889;SDS011;8043;49.388;12.128;2024-03-25T11:37:17;1.07;;;0.98;;
15889;SDS011;8043;49.388;12.128;2024-03-25T11:42:19;10.65;;;1.30;;
15889;SDS011;8043;49.388;12.128;2024-03-25T11:47:22;4.47;;;1.20;;
15889;SDS011;8043;49.388;12.128;2024-03-25T11:52:29;4.62;;;1.07;;
15889;SDS011;8043;49.388;12.128;2024-03-25T11:57:33;2.98;;;1.30;;
15889;SDS011;8043;49.388;12.128;2024-03-25T12:02:42;4.87;;;1.20;;
15889;SDS011;8043;49.388;12.128;2024-03-25T12:07:46;2.35;;;0.70;;
15889;SDS011;8043;49.388;12.128;2024-03-25T12:12:50;0.60;;;0.60;;
15889;SDS011;8043;49.388;12.128;2024-03-25T12:17:52;3.83;;;1.15;;
15889;SDS011;8043;49.388;12.128;2024-03-25T12:22:55;0.90;;;0.90;;
15889;SDS011;8043;49.388;12.128;2024-03-25T12:33:00;1.07;;;0.80;;
15889;SDS011;8043;49.388;12.128;2024-03-25T12:38:03;2.10;;;0.95;;
15889;SDS011;8043;49.388;12.128;2024-03-25T12:43:13;0.82;;;0.80;;
15889;SDS011;8043;49.388;12.128;2024-03-25T12:48:18;3.45;;;0.82;;
15889;SDS011;8043;49.388;12.128;2024-03-25T12:58:22;4.22;;;1.00;;
15889;SDS011;8043;49.388;12.128;2024-03-25T13:03:25;4.37;;;1.45;;
15889;SDS011;8043;49.388;12.128;2024-03-25T13:08:28;3.92;;;0.88;;
15889;SDS011;8043;49.388;12.128;2024-03-25T13:13:30;2.85;;;0.85;;
15889;SDS011;8043;49.388;12.128;2024-03-25T13:18:34;0.75;;;0.75;;
15889;SDS011;8043;49.388;12.128;2024-03-25T13:23:36;2.83;;;1.30;;
15889;SDS011;8043;49.388;12.128;2024-03-25T13:33:41;4.45;;;1.02;;
15889;SDS011;8043;49.388;12.128;2024-03-25T13:38:47;2.65;;;1.30;;
15889;SDS011;8043;49.388;12.128;2024-03-25T13:43:49;58.52;;;3.77;;
15889;SDS011;8043;49.388;12.128;2024-03-25T13:48:52;1.42;;;0.90;;
15889;SDS011;8043;49.388;12.128;2024-03-25T13:53:54;1.57;;;1.30;;
15889;SDS011;8043;49.388;12.128;2024-03-25T13:58:57;0.80;;;0.55;;
15889;SDS011;8043;49.388;12.128;2024-03-25T14:03:59;0.95;;;0.80;;
15889;SDS011;8043;49.388;12.128;2024-03-25T14:09:02;3.22;;;1.50;;
15889;SDS011;8043;49.388;12.128;2024-03-25T14:14:10;0.88;;;0.62;;
15889;SDS011;8043;49.388;12.128;2024-03-25T14:19:12;1.27;;;0.88;;
15889;SDS011;8043;49.388;12.128;2024-03-25T14:24:15;1.67;;;1.15;;
15889;SDS011;8043;49.388;12.128;2024-03-25T14:29:17;3.67;;;1.15;;
15889;SDS011;8043;49.388;12.128;2024-03-25T14:34:19;7.30;;;1.17;;
15889;SDS011;8043;49.388;12.128;2024-03-25T14:39:22;0.95;;;0.80;;
15889;SDS011;8043;49.388;12.128;2024-03-25T14:44:25;1.20;;;1.07;;
15889;SDS011;8043;49.388;12.128;2024-03-25T14:49:28;1.12;;;1.02;;
15889;SDS011;8043;49.388;12.128;2024-03-25T14:54:34;1.42;;;1.00;;
15889;SDS011;8043;49.388;12.128;2024-03-25T14:59:38;1.10;;;0.93;;
15889;SDS011;8043;49.388;12.128;2024-03-25T15:04:40;1.07;;;0.98;;
15889;SDS011;8043;49.388;12.128;2024-03-25T15:09:44;3.15;;;1.10;;
15889;SDS011;8043;49.388;12.128;2024-03-25T15:19:49;3.05;;;1.12;;
15889;SDS011;8043;49.388;12.128;2024-03-25T15:24:51;2.22;;;0.90;;
15889;SDS011;8043;49.388;12.128;2024-03-25T15:29:53;2.70;;;0.80;;
15889;SDS011;8043;49.388;12.128;2024-03-25T15:39:58;0.90;;;0.90;;
15889;SDS011;8043;49.388;12.128;2024-03-25T15:50:02;3.70;;;1.00;;
15889;SDS011;8043;49.388;12.128;2024-03-25T15:55:06;1.20;;;1.10;;
15889;SDS011;8043;49.388;12.128;2024-03-25T16:00:09;1.10;;;0.93;;
15889;SDS011;8043;49.388;12.128;2024-03-25T16:05:13;1.62;;;1.00;;
15889;SDS011;8043;49.388;12.128;2024-03-25T16:10:15;2.00;;;1.10;;
15889;SDS011;8043;49.388;12.128;2024-03-25T16:15:18;0.90;;;0.90;;
15889;SDS011;8043;49.388;12.128;2024-03-25T16:20:21;1.25;;;0.70;;
15889;SDS011;8043;49.388;12.128;2024-03-25T16:25:25;3.85;;;1.15;;
15889;SDS011;8043;49.388;12.128;2024-03-25T16:30:28;1.55;;;0.88;;
15889;SDS011;8043;49.388;12.128;2024-03-25T16:35:31;1.93;;;0.97;;
15889;SDS011;8043;49.388;12.128;2024-03-25T16:40:33;4.00;;;1.30;;
15889;SDS011;8043;49.388;12.128;2024-03-25T16:45:36;0.95;;;0.88;;
15889;SDS011;8043;49.388;12.128;2024-03-25T16:50:39;3.90;;;1.57;;
15889;SDS011;8043;49.388;12.128;2024-03-25T16:55:42;4.28;;;2.45;;
15889;SDS011;8043;49.388;12.128;2024-03-25T17:00:45;5.55;;;2.40;;
15889;SDS011;8043;49.388;12.128;2024-03-25T17:05:52;7.95;;;3.22;;
15889;SDS011;8043;49.388;12.128;2024-03-25T17:10:54;7.85;;;2.83;;
15889;SDS011;8043;49.388;12.128;2024-03-25T17:15:57;8.45;;;2.98;;
15889;SDS011;8043;49.388;12.128;2024-03-25T17:20:59;5.72;;;3.33;;
15889;SDS011;8043;49.388;12.128;2024-03-25T17:26:04;8.18;;;2.98;;
15889;SDS011;8043;49.388;12.128;2024-03-25T17:31:07;8.60;;;2.35;;
15889;SDS011;8043;49.388;12.128;2024-03-25T17:36:10;4.40;;;2.25;;
15889;SDS011;8043;49.388;12.128;2024-03-25T17:41:13;7.40;;;1.85;;
15889;SDS011;8043;49.388;12.128;2024-03-25T17:46:15;4.57;;;2.60;;
15889;SDS011;8043;49.388;12.128;2024-03-25T17:56:20;7.17;;;3.77;;
15889;SDS011;8043;49.388;12.128;2024-03-25T18:01:25;12.73;;;4.87;;
15889;SDS011;8043;49.388;12.128;2024-03-25T18:06:28;28.65;;;10.72;;
15889;SDS011;8043;49.388;12.128;2024-03-25T18:11:31;21.55;;;7.72;;
15889;SDS011;8043;49.388;12.128;2024-03-25T18:16:33;10.68;;;5.75;;
15889;SDS011;8043;49.388;12.128;2024-03-25T18:21:36;11.97;;;4.72;;
15889;SDS011;8043;49.388;12.128;2024-03-25T18:31:41;32.28;;;11.93;;
15889;SDS011;8043;49.388;12.128;2024-03-25T18:36:43;35.70;;;10.78;;
15889;SDS011;8043;49.388;12.128;2024-03-25T18:41:47;14.90;;;6.80;;
15889;SDS011;8043;49.388;12.128;2024-03-25T18:46:50;3.43;;;3.13;;
15889;SDS011;8043;49.388;12.128;2024-03-25T18:51:53;11.48;;;4.00;;
15889;SDS011;8043;49.388;12.128;2024-03-25T18:56:56;6.85;;;3.15;;
15889;SDS011;8043;49.388;12.128;2024-03-25T19:02:00;10.75;;;4.22;;
15889;SDS011;8043;49.388;12.128;2024-03-25T19:07:05;12.10;;;5.03;;
15889;SDS011;8043;49.388;12.128;2024-03-25T19:12:08;15.60;;;5.12;;
15889;SDS011;8043;49.388;12.128;2024-03-25T19:17:11;13.40;;;6.40;;
15889;SDS011;8043;49.388;12.128;2024-03-25T19:22:14;15.70;;;7.00;;
15889;SDS011;8043;49.388;12.128;2024-03-25T19:27:17;13.75;;;6.65;;
15889;SDS011;8043;49.388;12.128;2024-03-25T19:32:20;11.33;;;5.10;;
15889;SDS011;8043;49.388;12.128;2024-03-25T19:37:22;9.13;;;3.60;;
15889;SDS011;8043;49.388;12.128;2024-03-25T19:42:26;3.87;;;2.33;;
15889;SDS011;8043;49.388;12.128;2024-03-25T19:47:30;3.15;;;2.12;;
15889;SDS011;8043;49.388;12.128;2024-03-25T19:57:36;11.03;;;4.10;;
15889;SDS011;8043;49.388;12.128;2024-03-25T20:02:39;30.48;;;8.08;;
15889;SDS011;8043;49.388;12.128;2024-03-25T20:07:42;33.70;;;11.97;;
15889;SDS011;8043;49.388;12.128;2024-03-25T20:12:46;29.05;;;9.18;;
15889;SDS011;8043;49.388;12.128;2024-03-25T20:17:52;12.70;;;4.35;;
15889;SDS011;8043;49.388;12.128;2024-03-25T20:22:55;7.45;;;3.00;;
15889;SDS011;8043;49.388;12.128;2024-03-25T20:27:59;10.00;;;3.70;;
15889;SDS011;8043;49.388;12.128;2024-03-25T20:33:02;4.10;;;2.50;;
15889;SDS011;8043;49.388;12.128;2024-03-25T20:38:07;3.65;;;2.40;;
15889;SDS011;8043;49.388;12.128;2024-03-25T20:43:09;3.65;;;2.60;;
15889;SDS011;8043;49.388;12.128;2024-03-25T20:48:12;2.50;;;1.95;;
15889;SDS011;8043;49.388;12.128;2024-03-25T20:53:15;3.92;;;2.45;;
15889;SDS011;8043;49.388;12.128;2024-03-25T21:03:22;8.35;;;3.40;;
15889;SDS011;8043;49.388;12.128;2024-03-25T21:08:25;5.17;;;2.87;;
15889;SDS011;8043;49.388;12.128;2024-03-25T21:13:27;6.67;;;2.85;;
15889;SDS011;8043;49.388;12.128;2024-03-25T21:18:31;7.72;;;2.83;;
15889;SDS011;8043;49.388;12.128;2024-03-25T21:23:35;3.08;;;2.27;;
15889;SDS011;8043;49.388;12.128;2024-03-25T21:28:38;8.73;;;2.87;;
15889;SDS011;8043;49.388;12.128;2024-03-25T21:33:41;3.25;;;2.35;;
15889;SDS011;8043;49.388;12.128;2024-03-25T21:38:46;9.50;;;2.33;;
15889;SDS011;8043;49.388;12.128;2024-03-25T21:43:50;1.87;;;1.77;;
15889;SDS011;8043;49.388;12.128;2024-03-25T21:48:54;5.00;;;3.77;;
15889;SDS011;8043;49.388;12.128;2024-03-25T21:53:57;6.17;;;2.55;;
15889;SDS011;8043;49.388;12.128;2024-03-25T21:59:00;3.45;;;2.83;;
15889;SDS011;8043;49.388;12.128;2024-03-25T22:04:03;3.83;;;2.55;;
15889;SDS011;8043;49.388;12.128;2024-03-25T22:09:06;2.70;;;2.00;;
15889;SDS011;8043;49.388;12.128;2024-03-25T22:14:09;2.05;;;1.30;;
15889;SDS011;8043;49.388;12.128;2024-03-25T22:19:13;10.88;;;2.98;;
15889;SDS011;8043;49.388;12.128;2024-03-25T22:24:16;5.30;;;1.70;;
15889;SDS011;8043;49.388;12.128;2024-03-25T22:34:21;2.30;;;2.15;;
15889;SDS011;8043;49.388;12.128;2024-03-25T22:39:24;3.80;;;2.20;;
15889;SDS011;8043;49.388;12.128;2024-03-25T22:49:29;2.20;;;1.97;;
15889;SDS011;8043;49.388;12.128;2024-03-25T22:54:32;7.60;;;2.20;;
15889;SDS011;8043;49.388;12.128;2024-03-25T22:59:35;1.47;;;1.05;;
15889;SDS011;8043;49.388;12.128;2024-03-25T23:04:38;3.87;;;1.77;;
15889;SDS011;8043;49.388;12.128;2024-03-25T23:09:41;2.05;;;1.77;;
15889;SDS011;8043;49.388;12.128;2024-03-25T23:14:45;1.57;;;1.47;;
15889;SDS011;8043;49.388;12.128;2024-03-25T23:19:52;2.17;;;1.37;;
15889;SDS011;8043;49.388;12.128;2024-03-25T23:24:56;2.00;;;1.17;;
15889;SDS011;8043;49.388;12.128;2024-03-25T23:29:58;1.65;;;1.40;;
15889;SDS011;8043;49.388;12.128;2024-03-25T23:35:01;4.10;;;2.60;;
15889;SDS011;8043;49.388;12.128;2024-03-25T23:40:08;1.12;;;1.07;;
15889;SDS011;8043;49.388;12.128;2024-03-25T23:45:10;1.50;;;1.40;;
15889;SDS011;8043;49.388;12.128;2024-03-25T23:50:13;1.80;;;1.22;;
15889;SDS011;8043;49.388;12.128;2024-03-25T23:55:15;5.90;;;2.25;;
